createdAt,value
2018-04-13T00:02:17.907Z,86.60
2018-04-13T00:04:46.143Z,86.90
2018-04-13T00:07:14.387Z,89.40
2018-04-13T00:09:42.644Z,82.70
2018-04-13T00:12:10.886Z,88.50
2018-04-13T00:14:39.112Z,83.20
2018-04-13T00:17:07.367Z,80.50
2018-04-13T00:19:35.610Z,81.00
2018-04-13T00:22:04.609Z,88.10
2018-04-13T00:24:33.322Z,88.10
2018-04-13T00:27:01.559Z,89.10
2018-04-13T00:29:29.807Z,86.00
2018-04-13T00:31:58.060Z,90.60
2018-04-13T00:34:26.301Z,90.00
2018-04-13T00:36:54.542Z,88.70
2018-04-13T00:39:22.811Z,87.40
2018-04-13T00:41:51.055Z,87.10
2018-04-13T00:44:19.293Z,91.10
2018-04-13T00:46:47.815Z,90.40
2018-04-13T00:49:16.052Z,89.00
2018-04-13T00:51:44.567Z,88.90
2018-04-13T00:54:13.012Z,90.00
2018-04-13T00:56:41.248Z,89.80
2018-04-13T00:59:09.492Z,90.10
2018-04-13T01:01:37.759Z,91.50
2018-04-13T01:04:06.423Z,90.80
2018-04-13T01:06:35.427Z,89.00
2018-04-13T01:09:04.759Z,90.10
2018-04-13T01:11:33.139Z,90.00
2018-04-13T01:14:01.477Z,87.20
2018-04-13T01:16:29.738Z,90.40
2018-04-13T01:18:57.967Z,91.50
2018-04-13T01:21:26.199Z,92.00
2018-04-13T01:23:54.466Z,91.60
2018-04-13T01:26:23.471Z,89.30
2018-04-13T01:28:52.475Z,90.90
2018-04-13T01:31:21.004Z,90.90
2018-04-13T01:33:49.236Z,92.60
2018-04-13T01:36:17.474Z,93.00
2018-04-13T01:38:45.742Z,92.70
2018-04-13T01:41:13.976Z,92.60
2018-04-13T01:43:42.213Z,92.20
2018-04-13T01:46:10.488Z,92.70
2018-04-13T01:48:38.726Z,92.00
2018-04-13T01:51:06.963Z,93.00
2018-04-13T01:53:35.895Z,92.70
2018-04-13T01:56:04.131Z,92.40
2018-04-13T01:58:32.367Z,93.90
2018-04-13T02:01:00.715Z,91.80
2018-04-13T02:03:28.955Z,91.50
2018-04-13T02:05:57.464Z,93.10
2018-04-13T02:08:25.725Z,93.60
2018-04-13T02:10:54.059Z,93.40
2018-04-13T02:13:22.310Z,93.40
2018-04-13T02:15:50.631Z,94.00
2018-04-13T02:18:18.874Z,91.90
2018-04-13T02:20:47.119Z,93.00
2018-04-13T02:23:16.147Z,91.80
2018-04-13T02:25:44.378Z,91.80
2018-04-13T02:28:12.899Z,93.00
2018-04-13T02:30:41.157Z,93.50
2018-04-13T02:33:09.391Z,93.60
2018-04-13T02:35:37.635Z,92.30
2018-04-13T02:38:06.403Z,93.50
2018-04-13T02:40:34.632Z,93.80
2018-04-13T02:43:02.885Z,92.70
2018-04-13T02:45:31.135Z,91.90
2018-04-13T02:47:59.375Z,94.30
2018-04-13T02:50:27.697Z,92.10
2018-04-13T02:52:55.954Z,93.00
2018-04-13T02:55:24.210Z,94.10
2018-04-13T02:57:52.454Z,92.60
2018-04-13T03:00:21.211Z,93.90
2018-04-13T03:02:49.447Z,91.80
2018-04-13T03:05:17.707Z,92.30
2018-04-13T03:07:46.344Z,91.90
2018-04-13T03:10:14.583Z,91.10
2018-04-13T03:12:43.030Z,91.80
2018-04-13T03:15:11.303Z,92.60
2018-04-13T03:17:39.544Z,92.10
2018-04-13T03:20:08.560Z,93.50
2018-04-13T03:22:37.233Z,93.40
2018-04-13T03:25:05.567Z,90.90
2018-04-13T03:27:33.815Z,90.70
2018-04-13T03:30:02.080Z,91.90
2018-04-13T03:32:30.315Z,92.40
2018-04-13T03:34:58.560Z,94.50
2018-04-13T03:37:26.819Z,94.10
2018-04-13T03:39:55.054Z,93.40
2018-04-13T03:42:23.295Z,92.30
2018-04-13T03:44:51.595Z,93.10
2018-04-13T03:47:19.859Z,94.10
2018-04-13T03:49:48.099Z,91.80
2018-04-13T03:52:16.378Z,91.50
2018-04-13T03:54:44.617Z,91.80
2018-04-13T03:57:12.864Z,91.70
2018-04-13T03:59:41.691Z,92.10
2018-04-13T04:02:09.943Z,92.10
2018-04-13T04:04:38.175Z,94.00
2018-04-13T04:07:06.579Z,95.30
2018-04-13T04:09:34.935Z,94.00
2018-04-13T04:12:03.202Z,95.70
2018-04-13T04:14:31.455Z,93.80
2018-04-13T04:16:59.695Z,93.80
2018-04-13T04:19:40.617Z,93.70
2018-04-13T04:22:20.579Z,93.20
2018-04-13T04:25:01.120Z,92.40
2018-04-13T04:27:29.495Z,93.80
2018-04-13T04:29:57.739Z,94.20
2018-04-13T04:32:26.004Z,95.20
2018-04-13T04:34:54.250Z,96.70
2018-04-13T04:37:22.488Z,95.30
2018-04-13T04:39:50.811Z,96.30
2018-04-13T04:42:19.059Z,93.60
2018-04-13T04:44:47.369Z,95.00
2018-04-13T04:47:15.915Z,98.70
2018-04-13T04:49:44.159Z,99.90
2018-04-13T04:52:12.394Z,99.90
2018-04-13T04:54:40.853Z,99.30
2018-04-13T04:57:09.094Z,99.90
2018-04-13T04:59:38.091Z,97.30
2018-04-13T05:02:07.243Z,97.60
2018-04-13T05:04:35.482Z,97.50
2018-04-13T05:07:03.715Z,98.30
2018-04-13T05:09:32.567Z,99.90
2018-04-13T05:12:01.200Z,99.20
2018-04-13T05:14:29.431Z,99.90
2018-04-13T05:16:57.725Z,99.60
2018-04-13T05:19:25.975Z,97.80
2018-04-13T05:21:54.215Z,99.40
2018-04-13T05:24:22.471Z,99.90
2018-04-13T05:26:50.708Z,97.70
2018-04-13T05:29:18.983Z,99.90
2018-04-13T05:31:48.283Z,97.30
2018-04-13T05:34:16.519Z,97.30
2018-04-13T05:36:44.760Z,99.90
2018-04-13T05:39:13.031Z,99.20
2018-04-13T05:41:41.268Z,97.50
2018-04-13T05:44:09.499Z,98.30
2018-04-13T05:46:37.765Z,99.20
2018-04-13T05:49:06.007Z,97.40
2018-04-13T05:51:34.247Z,98.80
2018-04-13T05:54:03.083Z,97.00
2018-04-13T05:56:31.324Z,97.70
2018-04-13T05:58:59.567Z,97.60
2018-04-13T06:01:27.832Z,98.80
2018-04-13T06:03:56.083Z,96.80
2018-04-13T06:06:24.327Z,96.60
2018-04-13T06:08:53.653Z,99.90
2018-04-13T06:11:22.047Z,99.90
2018-04-13T06:13:50.459Z,99.90
2018-04-13T06:16:19.111Z,99.90
2018-04-13T06:18:47.351Z,99.20
2018-04-13T06:21:15.587Z,97.90
2018-04-13T06:23:43.854Z,99.00
2018-04-13T06:26:12.085Z,99.90
2018-04-13T06:28:40.331Z,98.70
2018-04-13T06:31:08.595Z,99.90
2018-04-13T06:33:36.847Z,99.80
2018-04-13T06:36:05.082Z,98.60
2018-04-13T06:38:34.663Z,99.30
2018-04-13T06:41:02.901Z,99.30
2018-04-13T06:43:31.143Z,99.30
2018-04-13T06:46:00.172Z,99.90
2018-04-13T06:48:28.409Z,99.90
2018-04-13T06:50:56.656Z,99.20
2018-04-13T06:53:24.931Z,99.90
2018-04-13T06:55:53.175Z,99.90
2018-04-13T06:58:21.413Z,99.90
2018-04-13T07:00:50.851Z,99.90
2018-04-13T07:03:19.083Z,99.90
2018-04-13T07:05:47.318Z,99.90
2018-04-13T07:08:15.584Z,99.90
2018-04-13T07:10:43.820Z,99.90
2018-04-13T07:13:12.061Z,99.90
2018-04-13T07:15:40.808Z,99.90
2018-04-13T07:18:09.055Z,99.90
2018-04-13T07:20:37.287Z,99.60
2018-04-13T07:23:05.955Z,99.30
2018-04-13T07:25:34.199Z,99.60
2018-04-13T07:28:03.202Z,99.90
2018-04-13T07:30:32.830Z,99.90
2018-04-13T07:33:01.056Z,99.50
2018-04-13T07:35:29.298Z,99.90
2018-04-13T07:37:57.555Z,99.90
2018-04-13T07:40:25.803Z,99.80
2018-04-13T07:42:54.037Z,99.90
2018-04-13T07:45:22.604Z,99.90
2018-04-13T07:47:50.835Z,99.40
2018-04-13T07:50:20.296Z,99.60
2018-04-13T07:52:49.112Z,99.90
2018-04-13T07:55:17.352Z,99.90
2018-04-13T07:57:45.743Z,99.90
2018-04-13T08:00:13.925Z,99.90
2018-04-13T08:02:42.163Z,99.80
2018-04-13T08:05:10.415Z,99.90
2018-04-13T08:07:39.243Z,99.60
2018-04-13T08:10:07.488Z,98.90
2018-04-13T08:12:35.726Z,99.60
2018-04-13T08:15:03.995Z,98.40
2018-04-13T08:17:32.457Z,99.60
2018-04-13T08:20:00.702Z,99.90
2018-04-13T08:22:28.967Z,99.90
2018-04-13T08:24:57.279Z,99.90
2018-04-13T08:27:25.543Z,99.90
2018-04-13T08:29:54.039Z,99.90
2018-04-13T08:32:22.280Z,99.90
2018-04-13T08:34:50.519Z,99.90
2018-04-13T08:37:18.859Z,99.90
2018-04-13T08:39:47.111Z,99.90
2018-04-13T08:42:15.355Z,99.90
2018-04-13T08:44:43.615Z,99.90
2018-04-13T08:47:11.855Z,99.90
2018-04-13T08:49:40.098Z,99.90
2018-04-13T08:52:08.839Z,99.90
2018-04-13T08:54:37.079Z,99.90
2018-04-13T08:57:05.356Z,99.90
2018-04-13T08:59:33.611Z,99.90
2018-04-13T09:02:02.051Z,99.90
2018-04-13T09:04:30.307Z,99.90
2018-04-13T09:06:58.572Z,99.90
2018-04-13T09:09:26.815Z,99.90
2018-04-13T09:11:55.059Z,99.90
2018-04-13T09:14:23.519Z,99.90
2018-04-13T09:16:51.768Z,99.90
2018-04-13T09:19:20.362Z,99.90
2018-04-13T09:21:49.387Z,99.90
2018-04-13T09:24:17.735Z,99.90
2018-04-13T09:26:46.747Z,99.90
2018-04-13T09:29:15.453Z,99.90
2018-04-13T09:31:43.852Z,99.90
2018-04-13T09:34:12.091Z,99.90
2018-04-13T09:36:40.903Z,99.90
2018-04-13T09:39:09.262Z,99.90
2018-04-13T09:41:38.257Z,99.90
2018-04-13T09:44:06.534Z,99.80
2018-04-13T09:46:34.783Z,99.20
2018-04-13T09:49:03.018Z,99.60
2018-04-13T09:51:31.437Z,99.20
2018-04-13T09:54:00.460Z,99.90
2018-04-13T09:56:28.710Z,99.90
2018-04-13T09:58:57.107Z,99.90
2018-04-13T10:01:25.338Z,99.90
2018-04-13T10:04:08.453Z,99.50
2018-04-13T10:06:36.691Z,99.80
2018-04-13T10:09:05.763Z,99.20
2018-04-13T10:11:34.795Z,99.30
2018-04-13T10:14:03.036Z,99.30
2018-04-13T10:16:31.279Z,99.20
2018-04-13T10:19:00.656Z,99.60
2018-04-13T10:21:29.199Z,99.60
2018-04-13T10:23:58.192Z,99.90
2018-04-13T10:26:27.223Z,99.90
2018-04-13T10:28:55.556Z,99.90
2018-04-13T10:31:24.558Z,99.90
2018-04-13T10:33:53.614Z,99.90
2018-04-13T10:36:21.858Z,99.90
2018-04-13T10:38:50.105Z,99.90
2018-04-13T10:41:18.731Z,99.80
2018-04-13T10:43:46.977Z,99.20
2018-04-13T10:46:15.216Z,98.70
2018-04-13T10:48:44.252Z,98.70
2018-04-13T10:51:12.676Z,99.20
2018-04-13T10:53:41.055Z,99.90
2018-04-13T10:56:09.295Z,99.70
2018-04-13T10:58:37.531Z,99.90
2018-04-13T11:01:05.773Z,99.90
2018-04-13T11:03:34.439Z,99.60
2018-04-13T11:06:02.727Z,99.90
2018-04-13T11:08:31.940Z,99.90
2018-04-13T11:11:00.199Z,99.90
2018-04-13T11:13:28.435Z,99.90
2018-04-13T11:15:56.831Z,98.20
2018-04-13T11:18:25.148Z,97.20
2018-04-13T11:20:53.565Z,97.90
2018-04-13T11:23:22.039Z,98.00
2018-04-13T11:25:50.503Z,98.30
2018-04-13T11:28:19.136Z,98.40
2018-04-13T11:30:47.412Z,98.50
2018-04-13T11:33:15.684Z,98.60
2018-04-13T11:35:43.988Z,99.70
2018-04-13T11:38:12.263Z,99.90
2018-04-13T11:40:40.576Z,98.50
2018-04-13T11:43:08.800Z,98.00
2018-04-13T11:45:37.044Z,97.80
2018-04-13T11:48:05.367Z,98.40
2018-04-13T11:50:33.600Z,97.50
2018-04-13T11:53:02.027Z,96.80
2018-04-13T11:55:30.286Z,96.90
2018-04-13T11:57:58.532Z,97.60
2018-04-13T12:00:26.773Z,98.80
2018-04-13T12:02:55.345Z,98.40
2018-04-13T12:05:23.607Z,98.30
2018-04-13T12:07:53.250Z,99.60
2018-04-13T12:10:21.907Z,99.00
2018-04-13T12:12:50.151Z,99.00
2018-04-13T12:15:18.387Z,99.50
2018-04-13T12:17:58.519Z,99.10
2018-04-13T12:20:26.912Z,99.70
2018-04-13T12:22:55.143Z,99.90
2018-04-13T12:25:24.639Z,99.90
2018-04-13T12:27:52.878Z,99.90
2018-04-13T12:30:21.120Z,99.90
2018-04-13T12:32:49.378Z,99.90
2018-04-13T12:35:17.611Z,99.90
2018-04-13T12:37:45.878Z,99.90
2018-04-13T12:40:14.119Z,99.90
2018-04-13T12:42:42.478Z,99.90
2018-04-13T12:45:11.495Z,99.90
2018-04-13T12:47:40.317Z,99.90
2018-04-13T12:50:08.554Z,99.90
2018-04-13T12:52:37.556Z,99.90
2018-04-13T12:55:06.169Z,99.90
2018-04-13T12:57:34.251Z,99.90
2018-04-13T13:00:02.526Z,99.90
2018-04-13T13:02:30.763Z,99.90
2018-04-13T13:04:59.004Z,99.90
2018-04-13T13:07:27.243Z,99.90
2018-04-13T13:09:56.214Z,99.90
2018-04-13T13:12:24.595Z,99.90
2018-04-13T13:14:52.829Z,99.90
2018-04-13T13:17:21.088Z,99.90
2018-04-13T13:19:49.320Z,99.90
2018-04-13T13:22:17.567Z,99.90
2018-04-13T13:24:45.826Z,99.90
2018-04-13T13:27:14.571Z,99.90
2018-04-13T13:29:42.807Z,99.90
2018-04-13T13:32:11.699Z,99.90
2018-04-13T13:34:40.715Z,99.90
2018-04-13T13:37:08.958Z,99.90
2018-04-13T13:39:37.983Z,99.90
2018-04-13T13:42:06.463Z,99.90
2018-04-13T13:44:35.465Z,99.90
2018-04-13T13:47:03.735Z,99.90
2018-04-13T13:49:31.978Z,99.90
2018-04-13T13:52:01.091Z,99.90
2018-04-13T13:54:29.471Z,99.90
2018-04-13T13:56:58.490Z,99.90
2018-04-13T13:59:26.999Z,99.90
2018-04-13T14:01:55.378Z,99.90
2018-04-13T14:04:24.804Z,99.90
2018-04-13T14:06:53.045Z,99.90
2018-04-13T14:09:21.302Z,99.90
2018-04-13T14:11:51.835Z,99.90
2018-04-13T14:14:20.088Z,99.90
2018-04-13T14:16:48.599Z,99.90
2018-04-13T14:19:16.843Z,99.90
2018-04-13T14:21:45.844Z,99.90
2018-04-13T14:24:14.993Z,99.90
2018-04-13T14:26:43.312Z,99.90
2018-04-13T14:29:12.331Z,99.90
2018-04-13T14:31:40.638Z,99.90
2018-04-13T14:34:08.883Z,99.90
2018-04-13T14:36:37.119Z,99.90
2018-04-13T14:39:06.255Z,99.90
2018-04-13T14:41:34.503Z,99.90
2018-04-13T14:44:02.739Z,99.90
2018-04-13T14:46:31.027Z,99.90
2018-04-13T14:48:59.297Z,99.90
2018-04-13T14:51:27.781Z,99.90
2018-04-13T14:53:56.144Z,99.90
2018-04-13T14:56:24.370Z,99.90
2018-04-13T14:58:52.615Z,99.90
2018-04-13T15:01:20.955Z,99.90
2018-04-13T15:03:49.196Z,99.90
2018-04-13T15:06:17.433Z,99.90
2018-04-13T15:08:45.697Z,99.90
2018-04-13T15:11:14.092Z,99.90
2018-04-13T15:13:42.823Z,99.90
2018-04-13T15:16:11.175Z,99.90
2018-04-13T15:18:39.551Z,99.90
2018-04-13T15:21:07.918Z,99.90
2018-04-13T15:23:36.405Z,99.90
2018-04-13T15:26:04.683Z,99.90
2018-04-13T15:28:32.931Z,99.90
2018-04-13T15:31:01.187Z,99.90
2018-04-13T15:33:30.472Z,99.90
2018-04-13T15:35:59.475Z,99.90
2018-04-13T15:38:28.495Z,99.90
2018-04-13T15:40:56.733Z,99.90
2018-04-13T15:43:25.744Z,99.90
2018-04-13T15:45:54.067Z,99.90
2018-04-13T15:48:22.303Z,99.90
2018-04-13T15:50:51.543Z,99.90
2018-04-13T15:53:19.818Z,99.90
2018-04-13T15:55:48.046Z,99.90
2018-04-13T15:58:16.375Z,99.90
2018-04-13T16:00:44.780Z,99.90
2018-04-13T16:03:13.018Z,99.90
2018-04-13T16:05:41.264Z,99.90
2018-04-13T16:08:09.790Z,99.90
2018-04-13T16:10:38.007Z,99.90
2018-04-13T16:13:06.343Z,99.90
2018-04-13T16:15:34.743Z,99.90
2018-04-13T16:18:03.148Z,99.90
2018-04-13T16:20:32.148Z,99.90
2018-04-13T16:23:00.406Z,99.90
2018-04-13T16:25:29.471Z,99.90
2018-04-13T16:28:00.985Z,99.90
2018-04-13T16:30:29.215Z,99.90
2018-04-13T16:32:57.474Z,99.90
2018-04-13T16:35:25.736Z,99.90
2018-04-13T16:37:54.120Z,99.90
2018-04-13T16:40:22.335Z,99.90
2018-04-13T16:42:52.435Z,99.90
2018-04-13T16:45:20.799Z,99.90
2018-04-13T16:47:49.031Z,99.90
2018-04-13T16:50:17.453Z,99.90
2018-04-13T16:52:45.666Z,99.90
2018-04-13T16:55:14.932Z,99.90
2018-04-13T16:57:43.323Z,99.90
2018-04-13T17:00:11.567Z,99.90
2018-04-13T17:02:39.823Z,99.90
2018-04-13T17:05:08.159Z,99.90
2018-04-13T17:07:36.534Z,99.90
2018-04-13T17:10:04.775Z,99.90
2018-04-13T17:12:33.095Z,99.90
2018-04-13T17:15:01.374Z,99.90
2018-04-13T17:17:29.722Z,99.90
2018-04-13T17:19:57.987Z,99.90
2018-04-13T17:22:27.102Z,99.90
2018-04-13T17:24:55.507Z,99.90
2018-04-13T17:27:23.875Z,99.90
2018-04-13T17:29:52.232Z,99.90
2018-04-13T17:32:20.466Z,99.90
2018-04-13T17:34:49.075Z,99.90
2018-04-13T17:37:17.403Z,99.90
2018-04-13T17:39:46.403Z,99.90
2018-04-13T17:42:15.439Z,99.90
2018-04-13T17:44:43.748Z,99.90
2018-04-13T17:47:12.015Z,99.90
2018-04-13T17:49:40.298Z,99.90
2018-04-13T17:52:08.541Z,99.90
2018-04-13T17:54:36.779Z,99.90
2018-04-13T17:57:05.255Z,99.90
2018-04-13T17:59:33.704Z,99.90
2018-04-13T18:02:02.085Z,99.90
2018-04-13T18:04:30.339Z,99.90
2018-04-13T18:06:58.575Z,99.90
2018-04-13T18:09:27.594Z,99.90
2018-04-13T18:11:55.943Z,99.90
2018-04-13T18:14:26.173Z,99.90
2018-04-13T18:16:55.208Z,99.90
2018-04-13T18:19:23.605Z,99.90
2018-04-13T18:21:51.843Z,99.90
2018-04-13T18:24:20.465Z,99.90
2018-04-13T18:26:48.707Z,99.90
2018-04-13T18:29:19.170Z,99.90
2018-04-13T18:31:47.555Z,99.90
2018-04-13T18:34:16.251Z,99.90
2018-04-13T18:36:44.636Z,99.90
2018-04-13T18:39:12.881Z,99.90
2018-04-13T18:41:41.450Z,99.90
2018-04-13T18:44:09.836Z,99.90
2018-04-13T18:46:40.432Z,99.90
2018-04-13T18:49:08.748Z,99.90
2018-04-13T18:51:37.068Z,99.90
2018-04-13T18:54:05.283Z,99.90
2018-04-13T18:56:33.568Z,99.90
2018-04-13T18:59:01.822Z,99.90
2018-04-13T19:01:30.247Z,99.90
2018-04-13T19:03:58.727Z,99.90
2018-04-13T19:06:27.107Z,99.90
2018-04-13T19:08:55.348Z,99.90
2018-04-13T19:11:24.284Z,99.90
2018-04-13T19:13:52.703Z,99.90
2018-04-13T19:16:21.762Z,99.90
2018-04-13T19:18:50.169Z,99.90
2018-04-13T19:21:18.510Z,99.90
2018-04-13T19:23:46.907Z,99.90
2018-04-13T19:26:15.678Z,99.90
2018-04-13T19:28:43.964Z,99.90
2018-04-13T19:31:12.263Z,99.90
2018-04-13T19:33:40.731Z,99.90
2018-04-13T19:36:09.099Z,99.90
2018-04-13T19:38:37.556Z,99.90
2018-04-13T19:41:05.884Z,99.90
2018-04-13T19:43:34.224Z,99.90
2018-04-13T19:46:02.457Z,99.90
2018-04-13T19:48:30.896Z,99.90
2018-04-13T19:50:59.166Z,99.90
2018-04-13T19:53:27.455Z,99.90
2018-04-13T19:55:55.859Z,99.90
2018-04-13T19:58:25.198Z,99.90
2018-04-13T20:00:53.512Z,99.90
2018-04-13T20:03:21.783Z,99.90
2018-04-13T20:05:50.256Z,99.90
2018-04-13T20:08:18.648Z,99.90
2018-04-13T20:10:47.089Z,99.90
2018-04-13T20:13:15.379Z,99.90
2018-04-13T20:15:44.492Z,99.90
2018-04-13T20:18:13.722Z,99.90
2018-04-13T20:20:42.066Z,99.90
2018-04-13T20:23:10.307Z,99.90
2018-04-13T20:25:39.775Z,99.90
2018-04-13T20:28:08.018Z,99.90
2018-04-13T20:30:36.265Z,99.90
2018-04-13T20:33:04.748Z,99.90
2018-04-13T20:35:33.587Z,99.90
2018-04-13T20:38:02.891Z,99.90
2018-04-13T20:40:31.357Z,99.90
2018-04-13T20:43:01.822Z,99.90
2018-04-13T20:45:30.878Z,99.90
2018-04-13T20:47:59.357Z,99.90
2018-04-13T20:50:27.617Z,99.90
2018-04-13T20:52:55.929Z,99.90
2018-04-13T20:55:24.678Z,99.90
2018-04-13T20:57:52.927Z,99.90
2018-04-13T21:00:21.252Z,99.90
2018-04-13T21:02:49.499Z,99.90
2018-04-13T21:05:17.752Z,99.90
2018-04-13T21:07:46.759Z,99.90
2018-04-13T21:10:15.027Z,99.90
2018-04-13T21:12:45.403Z,99.90
2018-04-13T21:15:13.663Z,99.90
2018-04-13T21:17:42.203Z,99.90
2018-04-13T21:20:11.203Z,99.90
2018-04-13T21:22:39.451Z,99.90
2018-04-13T21:25:07.722Z,99.90
2018-04-13T21:27:35.971Z,99.90
2018-04-13T21:30:04.364Z,99.90
2018-04-13T21:32:32.639Z,99.90
2018-04-13T21:35:00.916Z,99.90
2018-04-13T21:37:29.855Z,99.90
2018-04-13T21:39:59.186Z,99.90
2018-04-13T21:42:27.434Z,99.90
2018-04-13T21:44:56.451Z,99.90
2018-04-13T21:47:24.715Z,99.90
2018-04-13T21:49:53.140Z,99.90
2018-04-13T21:52:21.367Z,99.90
2018-04-13T21:54:49.710Z,99.90
2018-04-13T21:57:17.967Z,99.90
2018-04-13T21:59:46.995Z,99.90
2018-04-13T22:02:15.414Z,99.90
2018-04-13T22:04:43.675Z,99.90
2018-04-13T22:07:11.923Z,99.90
2018-04-13T22:09:40.961Z,99.90
2018-04-13T22:12:30.760Z,99.90
2018-04-13T22:14:59.022Z,99.90
2018-04-13T22:17:27.278Z,99.90
2018-04-13T22:19:55.532Z,99.90
2018-04-13T22:22:23.855Z,99.90
2018-04-13T22:24:52.112Z,99.90
2018-04-13T22:27:20.363Z,99.90
2018-04-13T22:29:48.639Z,99.90
2018-04-13T22:32:16.881Z,99.90
2018-04-13T22:34:45.136Z,99.90
2018-04-13T22:37:14.603Z,99.90
2018-04-13T22:39:43.764Z,99.90
2018-04-13T22:42:11.995Z,99.90
2018-04-13T22:44:41.133Z,99.90
2018-04-13T22:47:09.367Z,99.90
2018-04-13T22:49:37.615Z,99.90
2018-04-13T22:52:05.896Z,99.90
2018-04-13T22:54:34.144Z,99.90
2018-04-13T22:57:02.458Z,99.90
2018-04-13T22:59:30.725Z,99.90
2018-04-13T23:01:58.969Z,99.90
2018-04-13T23:04:27.223Z,99.90
2018-04-13T23:06:55.806Z,99.90
2018-04-13T23:09:24.052Z,99.90
2018-04-13T23:11:53.063Z,99.90
2018-04-13T23:14:21.344Z,99.90
2018-04-13T23:16:49.597Z,99.90
2018-04-13T23:19:18.616Z,99.90
2018-04-13T23:21:46.891Z,99.90
2018-04-13T23:24:15.149Z,99.90
2018-04-13T23:26:43.413Z,99.90
2018-04-13T23:29:13.082Z,99.90
2018-04-13T23:31:41.328Z,99.90
2018-04-13T23:34:09.590Z,99.90
2018-04-13T23:36:37.865Z,99.90
2018-04-13T23:39:06.883Z,99.90
2018-04-13T23:41:35.539Z,99.90
2018-04-13T23:44:03.852Z,99.90
2018-04-13T23:46:32.112Z,99.90
2018-04-13T23:49:01.572Z,99.90
2018-04-13T23:51:29.920Z,99.90
2018-04-13T23:53:58.180Z,99.90
2018-04-13T23:56:26.435Z,99.90
2018-04-13T23:58:55.485Z,99.90
